createdAt,value
2019-05-19T00:00:41.683Z,0
2019-05-19T00:01:41.704Z,0
2019-05-19T00:02:41.695Z,0
2019-05-19T00:03:41.759Z,0
2019-05-19T00:04:41.716Z,0
2019-05-19T00:05:41.685Z,0
2019-05-19T00:06:41.763Z,0
2019-05-19T00:07:41.761Z,0
2019-05-19T00:08:41.702Z,0
2019-05-19T00:09:41.733Z,0
2019-05-19T00:10:41.639Z,0
2019-05-19T00:11:41.738Z,0
2019-05-19T00:12:41.681Z,0
2019-05-19T00:13:41.632Z,0
2019-05-19T00:14:41.634Z,0
2019-05-19T00:15:41.743Z,0
2019-05-19T00:16:41.739Z,0
2019-05-19T00:17:41.659Z,0
2019-05-19T00:18:41.662Z,0
2019-05-19T00:19:41.711Z,0
2019-05-19T00:20:41.719Z,0
2019-05-19T00:21:41.772Z,0
2019-05-19T00:22:41.770Z,0
2019-05-19T00:23:41.806Z,0
2019-05-19T00:24:41.772Z,0
2019-05-19T00:25:41.781Z,0
2019-05-19T00:26:41.779Z,0
2019-05-19T00:27:41.777Z,0
2019-05-19T00:28:41.775Z,0
2019-05-19T00:29:41.718Z,0
2019-05-19T00:30:41.778Z,0
2019-05-19T00:31:41.796Z,0
2019-05-19T00:32:41.781Z,0
2019-05-19T00:33:41.709Z,0
2019-05-19T00:34:41.743Z,0
2019-05-19T00:35:41.780Z,0
2019-05-19T00:36:41.733Z,0
2019-05-19T00:37:41.788Z,0
2019-05-19T00:38:41.783Z,0
2019-05-19T00:39:41.787Z,0
2019-05-19T00:40:41.741Z,0
2019-05-19T00:41:41.798Z,0
2019-05-19T00:42:41.847Z,0
2019-05-19T00:43:41.786Z,0
2019-05-19T00:44:41.787Z,0
2019-05-19T00:45:41.714Z,0
2019-05-19T00:46:41.787Z,0
2019-05-19T00:47:41.792Z,0
2019-05-19T00:48:41.734Z,0
2019-05-19T00:49:41.910Z,0
2019-05-19T00:50:41.906Z,0
2019-05-19T00:51:41.802Z,0
2019-05-19T00:52:41.804Z,0
2019-05-19T00:53:41.808Z,0
2019-05-19T00:54:41.722Z,0
2019-05-19T00:55:41.725Z,0
2019-05-19T00:56:41.798Z,0
2019-05-19T00:57:41.805Z,0
2019-05-19T00:58:41.801Z,0
2019-05-19T00:59:41.800Z,0
2019-05-19T01:00:41.720Z,0
2019-05-19T01:01:41.794Z,0
2019-05-19T01:02:41.720Z,0
2019-05-19T01:03:41.722Z,0
2019-05-19T01:04:41.797Z,0
2019-05-19T01:05:41.789Z,0
2019-05-19T01:06:41.720Z,0
2019-05-19T01:07:41.723Z,0
2019-05-19T01:08:41.794Z,0
2019-05-19T01:09:41.755Z,0
2019-05-19T01:10:41.807Z,0
2019-05-19T01:11:41.736Z,0
2019-05-19T01:12:41.809Z,0
2019-05-19T01:13:41.813Z,0
2019-05-19T01:14:41.815Z,0
2019-05-19T01:15:41.815Z,0
2019-05-19T01:16:41.810Z,0
2019-05-19T01:17:41.735Z,0
2019-05-19T01:18:41.797Z,0
2019-05-19T01:19:55.214Z,0
2019-05-19T01:20:41.684Z,0
2019-05-19T01:21:41.788Z,0
2019-05-19T01:22:41.751Z,0
2019-05-19T01:23:41.817Z,0
2019-05-19T01:24:41.737Z,0
2019-05-19T01:25:41.746Z,0
2019-05-19T01:26:41.748Z,0
2019-05-19T01:27:41.750Z,0
2019-05-19T01:28:41.793Z,0
2019-05-19T01:29:41.830Z,0
2019-05-19T01:30:41.835Z,0
2019-05-19T01:31:41.831Z,0
2019-05-19T01:32:41.823Z,0
2019-05-19T01:33:41.705Z,0
2019-05-19T01:34:41.826Z,0
2019-05-19T01:35:41.789Z,0
2019-05-19T01:36:41.839Z,0
2019-05-19T01:37:41.830Z,0
2019-05-19T01:38:41.756Z,0
2019-05-19T01:39:41.854Z,0
2019-05-19T01:40:41.813Z,0
2019-05-19T01:41:41.740Z,0
2019-05-19T01:42:41.766Z,0
2019-05-19T01:43:41.744Z,0
2019-05-19T01:44:41.817Z,0
2019-05-19T01:45:41.817Z,0
2019-05-19T01:46:41.749Z,0
2019-05-19T01:47:41.758Z,0
2019-05-19T01:48:41.748Z,0
2019-05-19T01:49:41.821Z,0
2019-05-19T01:50:41.750Z,0
2019-05-19T01:51:41.821Z,0
2019-05-19T01:52:41.762Z,0
2019-05-19T01:53:41.763Z,0
2019-05-19T01:54:41.825Z,0
2019-05-19T01:55:41.825Z,0
2019-05-19T01:56:41.825Z,0
2019-05-19T01:57:41.757Z,0
2019-05-19T01:58:41.877Z,0
2019-05-19T01:59:41.727Z,0
2019-05-19T02:00:41.825Z,0
2019-05-19T02:01:41.773Z,0
2019-05-19T02:02:41.810Z,0
2019-05-19T02:03:41.779Z,0
2019-05-19T02:04:41.826Z,0
2019-05-19T02:05:41.829Z,0
2019-05-19T02:06:46.103Z,0
2019-05-19T02:07:41.831Z,0
2019-05-19T02:08:41.775Z,0
2019-05-19T02:09:41.840Z,0
2019-05-19T02:10:41.760Z,0
2019-05-19T02:11:41.787Z,0
2019-05-19T02:12:41.826Z,0
2019-05-19T02:13:41.828Z,0
2019-05-19T02:14:41.746Z,0
2019-05-19T02:15:41.838Z,0
2019-05-19T02:16:41.792Z,0
2019-05-19T02:17:41.840Z,0
2019-05-19T02:18:41.839Z,0
2019-05-19T02:19:41.801Z,0
2019-05-19T02:20:41.741Z,0
2019-05-19T02:21:41.705Z,0
2019-05-19T02:22:41.784Z,0
2019-05-19T02:23:41.712Z,0
2019-05-19T02:24:41.706Z,0
2019-05-19T02:25:41.830Z,0
2019-05-19T02:26:41.776Z,0
2019-05-19T02:27:41.717Z,0
2019-05-19T02:28:41.814Z,0
2019-05-19T02:29:41.791Z,0
2019-05-19T02:30:41.792Z,0
2019-05-19T02:31:41.806Z,0
2019-05-19T02:32:41.795Z,0
2019-05-19T02:33:41.865Z,0
2019-05-19T02:34:41.865Z,0
2019-05-19T02:35:41.880Z,0
2019-05-19T02:36:41.883Z,0
2019-05-19T02:37:41.877Z,0
2019-05-19T02:38:41.803Z,0
2019-05-19T02:39:41.884Z,0
2019-05-19T02:40:41.871Z,0
2019-05-19T02:41:41.816Z,0
2019-05-19T02:42:41.880Z,0
2019-05-19T02:43:41.874Z,0
2019-05-19T02:44:41.881Z,0
2019-05-19T02:45:41.804Z,0
2019-05-19T02:46:41.820Z,0
2019-05-19T02:47:41.893Z,0
2019-05-19T02:48:41.906Z,0
2019-05-19T02:49:41.799Z,0
2019-05-19T02:50:51.427Z,0
2019-05-19T02:51:41.795Z,0
2019-05-19T02:52:41.890Z,0
2019-05-19T02:53:41.810Z,0
2019-05-19T02:54:41.799Z,0
2019-05-19T02:55:41.833Z,0
2019-05-19T02:56:41.870Z,0
2019-05-19T02:57:41.810Z,0
2019-05-19T02:58:41.882Z,0
2019-05-19T02:59:41.896Z,0
2019-05-19T03:00:41.967Z,0
2019-05-19T03:01:41.902Z,0
2019-05-19T03:02:41.781Z,0
2019-05-19T03:03:41.836Z,0
2019-05-19T03:04:41.888Z,0
2019-05-19T03:05:41.889Z,0
2019-05-19T03:06:41.843Z,0
2019-05-19T03:07:41.894Z,0
2019-05-19T03:08:41.900Z,0
2019-05-19T03:09:41.905Z,0
2019-05-19T03:10:41.905Z,0
2019-05-19T03:11:41.816Z,0
2019-05-19T03:12:41.890Z,0
2019-05-19T03:13:41.898Z,0
2019-05-19T03:14:41.885Z,0
2019-05-19T03:15:41.949Z,0
2019-05-19T03:16:41.827Z,0
2019-05-19T03:17:41.897Z,0
2019-05-19T03:18:41.897Z,0
2019-05-19T03:19:41.908Z,0
2019-05-19T03:20:41.832Z,0
2019-05-19T03:21:41.828Z,0
2019-05-19T03:22:41.832Z,0
2019-05-19T03:23:41.837Z,0
2019-05-19T03:24:41.918Z,0
2019-05-19T03:25:44.255Z,0
2019-05-19T03:26:41.905Z,0
2019-05-19T03:27:41.908Z,0
2019-05-19T03:28:41.902Z,0
2019-05-19T03:29:41.871Z,0
2019-05-19T03:30:41.854Z,0
2019-05-19T03:31:41.883Z,0
2019-05-19T03:32:41.967Z,0
2019-05-19T03:33:41.871Z,0
2019-05-19T03:34:41.873Z,0
2019-05-19T03:35:41.866Z,0
2019-05-19T03:36:41.845Z,0
2019-05-19T03:37:41.845Z,0
2019-05-19T03:38:41.910Z,0
2019-05-19T03:39:41.844Z,0
2019-05-19T03:40:41.796Z,0
2019-05-19T03:41:41.903Z,0
2019-05-19T03:42:41.778Z,0
2019-05-19T03:43:41.879Z,0
2019-05-19T03:44:41.801Z,0
2019-05-19T03:45:41.784Z,0
2019-05-19T03:46:41.824Z,0
2019-05-19T03:47:41.791Z,0
2019-05-19T03:48:41.867Z,0
2019-05-19T03:49:41.783Z,0
2019-05-19T03:50:41.923Z,0
2019-05-19T03:51:41.887Z,0
2019-05-19T03:52:41.932Z,0
2019-05-19T03:53:41.848Z,0
2019-05-19T03:54:41.923Z,0
2019-05-19T03:55:41.926Z,0
2019-05-19T03:56:41.943Z,0
2019-05-19T03:57:41.894Z,0
2019-05-19T03:58:41.853Z,0
2019-05-19T03:59:41.941Z,0
2019-05-19T04:00:41.838Z,0
2019-05-19T04:01:41.839Z,0
2019-05-19T04:02:41.854Z,14
2019-05-19T04:03:41.871Z,16
2019-05-19T04:04:41.854Z,16
2019-05-19T04:05:41.885Z,19
2019-05-19T04:06:41.843Z,21
2019-05-19T04:07:41.846Z,22
2019-05-19T04:08:41.930Z,23
2019-05-19T04:09:41.926Z,24
2019-05-19T04:10:41.867Z,25
2019-05-19T04:11:41.936Z,26
2019-05-19T04:12:41.930Z,27
2019-05-19T04:13:41.936Z,27
2019-05-19T04:14:41.949Z,28
2019-05-19T04:15:41.876Z,30
2019-05-19T04:16:41.990Z,30
2019-05-19T04:17:41.882Z,32
2019-05-19T04:18:41.879Z,33
2019-05-19T04:19:41.869Z,35
2019-05-19T04:20:41.864Z,37
2019-05-19T04:21:48.945Z,34
2019-05-19T04:22:41.876Z,40
2019-05-19T04:23:41.871Z,42
2019-05-19T04:24:41.932Z,44
2019-05-19T04:25:41.863Z,46
2019-05-19T04:26:41.937Z,49
2019-05-19T04:27:41.862Z,51
2019-05-19T04:28:41.882Z,51
2019-05-19T04:29:41.964Z,53
2019-05-19T04:30:41.878Z,57
2019-05-19T04:31:41.945Z,59
2019-05-19T04:32:41.887Z,61
2019-05-19T04:33:41.966Z,62
2019-05-19T04:34:41.891Z,63
2019-05-19T04:35:41.951Z,65
2019-05-19T04:36:41.954Z,65
2019-05-19T04:37:41.975Z,66
2019-05-19T04:38:41.957Z,67
2019-05-19T04:39:41.890Z,69
2019-05-19T04:40:41.958Z,72
2019-05-19T04:41:41.892Z,77
2019-05-19T04:42:41.895Z,79
2019-05-19T04:43:42.052Z,80
2019-05-19T04:44:41.892Z,81
2019-05-19T04:45:41.902Z,82
2019-05-19T04:46:41.959Z,82
2019-05-19T04:47:41.904Z,83
2019-05-19T04:48:41.961Z,84
2019-05-19T04:49:41.933Z,84
2019-05-19T04:50:41.976Z,86
2019-05-19T04:51:41.903Z,88
2019-05-19T04:52:41.983Z,86
2019-05-19T04:53:41.962Z,88
2019-05-19T04:54:41.898Z,93
2019-05-19T04:55:41.983Z,95
2019-05-19T04:56:41.976Z,99
2019-05-19T04:57:41.867Z,102
2019-05-19T04:58:41.975Z,104
2019-05-19T04:59:41.982Z,104
2019-05-19T05:00:41.995Z,108
2019-05-19T05:01:41.982Z,111
2019-05-19T05:02:41.898Z,116
2019-05-19T05:03:41.899Z,119
2019-05-19T05:04:41.996Z,120
2019-05-19T05:05:41.976Z,118
2019-05-19T05:06:41.986Z,122
2019-05-19T05:07:42.076Z,132
2019-05-19T05:08:41.908Z,129
2019-05-19T05:09:41.975Z,132
2019-05-19T05:10:41.981Z,136
2019-05-19T05:11:41.918Z,144
2019-05-19T05:12:41.995Z,139
2019-05-19T05:13:41.978Z,146
2019-05-19T05:14:41.905Z,146
2019-05-19T05:15:41.983Z,144
2019-05-19T05:16:41.980Z,136
2019-05-19T05:17:42.041Z,134
2019-05-19T05:18:41.917Z,134
2019-05-19T05:19:41.913Z,130
2019-05-19T05:20:41.988Z,125
2019-05-19T05:21:41.916Z,120
2019-05-19T05:22:41.939Z,114
2019-05-19T05:23:41.921Z,112
2019-05-19T05:24:42.003Z,104
2019-05-19T05:25:41.992Z,105
2019-05-19T05:26:41.917Z,101
2019-05-19T05:27:41.992Z,98
2019-05-19T05:28:41.982Z,96
2019-05-19T05:29:41.993Z,93
2019-05-19T05:30:41.903Z,88
2019-05-19T05:31:41.910Z,89
2019-05-19T05:32:41.982Z,90
2019-05-19T05:33:41.922Z,86
2019-05-19T05:34:41.908Z,90
2019-05-19T05:35:41.986Z,85
2019-05-19T05:36:41.915Z,89
2019-05-19T05:37:41.992Z,88
2019-05-19T05:38:41.986Z,87
2019-05-19T05:39:41.928Z,86
2019-05-19T05:40:42.013Z,85
2019-05-19T05:41:41.917Z,87
2019-05-19T05:42:41.990Z,90
2019-05-19T05:43:41.917Z,93
2019-05-19T05:44:41.998Z,97
2019-05-19T05:45:41.994Z,100
2019-05-19T05:46:41.921Z,103
2019-05-19T05:47:41.993Z,106
2019-05-19T05:48:41.922Z,107
2019-05-19T05:49:42.009Z,109
2019-05-19T05:50:41.944Z,111
2019-05-19T05:51:42.052Z,112
2019-05-19T05:52:42.024Z,112
2019-05-19T05:53:41.940Z,112
2019-05-19T05:54:42.011Z,110
2019-05-19T05:55:41.953Z,107
2019-05-19T05:56:42.111Z,107
2019-05-19T05:57:42.012Z,106
2019-05-19T05:58:41.942Z,104
2019-05-19T05:59:42.014Z,102
2019-05-19T06:00:42.020Z,99
2019-05-19T06:01:41.955Z,100
2019-05-19T06:02:41.950Z,100
2019-05-19T06:03:41.946Z,100
2019-05-19T06:04:42.039Z,99
2019-05-19T06:05:42.024Z,98
2019-05-19T06:06:41.934Z,97
2019-05-19T06:07:41.950Z,97
2019-05-19T06:08:42.023Z,96
2019-05-19T06:09:42.021Z,96
2019-05-19T06:10:42.049Z,94
2019-05-19T06:11:41.974Z,95
2019-05-19T06:12:41.960Z,95
2019-05-19T06:13:42.055Z,93
2019-05-19T06:14:42.034Z,88
2019-05-19T06:15:42.054Z,89
2019-05-19T06:16:42.033Z,94
2019-05-19T06:17:41.972Z,94
2019-05-19T06:18:42.029Z,95
2019-05-19T06:19:41.967Z,155
2019-05-19T06:20:41.960Z,144
2019-05-19T06:21:41.970Z,143
2019-05-19T06:22:55.058Z,147
2019-05-19T06:23:42.033Z,158
2019-05-19T06:24:42.033Z,182
2019-05-19T06:25:41.984Z,191
2019-05-19T06:26:41.960Z,197
2019-05-19T06:27:42.042Z,206
2019-05-19T06:28:41.975Z,208
2019-05-19T06:29:42.037Z,212
2019-05-19T06:30:42.034Z,215
2019-05-19T06:31:42.036Z,218
2019-05-19T06:32:42.046Z,231
2019-05-19T06:33:41.984Z,247
2019-05-19T06:34:41.971Z,286
2019-05-19T06:35:42.043Z,299
2019-05-19T06:36:42.003Z,302
2019-05-19T06:37:41.977Z,303
2019-05-19T06:38:42.058Z,296
2019-05-19T06:39:42.054Z,296
2019-05-19T06:40:41.995Z,303
2019-05-19T06:41:42.044Z,307
2019-05-19T06:42:42.046Z,349
2019-05-19T06:43:42.047Z,351
2019-05-19T06:44:41.975Z,340
2019-05-19T06:45:41.957Z,338
2019-05-19T06:46:42.066Z,352
2019-05-19T06:47:42.010Z,354
2019-05-19T06:48:42.049Z,359
2019-05-19T06:49:42.002Z,367
2019-05-19T06:50:42.064Z,401
2019-05-19T06:51:41.969Z,437
2019-05-19T06:52:42.045Z,444
2019-05-19T06:53:41.969Z,452
2019-05-19T06:54:42.044Z,454
2019-05-19T06:55:41.981Z,457
2019-05-19T06:56:41.974Z,449
2019-05-19T06:57:42.064Z,491
2019-05-19T06:58:41.977Z,507
2019-05-19T06:59:41.973Z,509
2019-05-19T07:00:42.044Z,511
2019-05-19T07:01:42.049Z,515
2019-05-19T07:02:42.017Z,508
2019-05-19T07:03:41.992Z,518
2019-05-19T07:04:41.953Z,520
2019-05-19T07:05:41.992Z,550
2019-05-19T07:06:41.971Z,574
2019-05-19T07:07:42.050Z,570
2019-05-19T07:08:42.047Z,579
2019-05-19T07:09:57.134Z,583
2019-05-19T07:10:42.004Z,584
2019-05-19T07:11:42.079Z,593
2019-05-19T07:12:42.026Z,595
2019-05-19T07:13:41.994Z,598
2019-05-19T07:14:42.073Z,602
2019-05-19T07:15:42.066Z,605
2019-05-19T07:16:42.030Z,607
2019-05-19T07:17:42.003Z,611
2019-05-19T07:18:42.078Z,614
2019-05-19T07:19:42.002Z,665
2019-05-19T07:20:41.958Z,675
2019-05-19T07:21:41.957Z,669
2019-05-19T07:22:41.977Z,653
2019-05-19T07:23:42.026Z,585
2019-05-19T07:24:42.059Z,560
2019-05-19T07:25:42.034Z,602
2019-05-19T07:26:41.962Z,653
2019-05-19T07:27:42.021Z,670
2019-05-19T07:28:42.005Z,675
2019-05-19T07:29:42.015Z,683
2019-05-19T07:30:42.009Z,702
2019-05-19T07:31:42.079Z,709
2019-05-19T07:32:42.084Z,713
2019-05-19T07:33:42.022Z,701
2019-05-19T07:34:42.010Z,716
2019-05-19T07:35:42.084Z,705
2019-05-19T07:36:42.097Z,720
2019-05-19T07:37:42.027Z,724
2019-05-19T07:38:42.028Z,726
2019-05-19T07:39:42.090Z,715
2019-05-19T07:40:42.032Z,716
2019-05-19T07:41:42.032Z,731
2019-05-19T07:42:41.986Z,735
2019-05-19T07:43:42.024Z,735
2019-05-19T07:44:45.199Z,737
2019-05-19T07:45:42.022Z,739
2019-05-19T07:46:41.978Z,727
2019-05-19T07:47:41.967Z,741
2019-05-19T07:48:41.940Z,744
2019-05-19T07:49:41.958Z,749
2019-05-19T07:50:42.079Z,752
2019-05-19T07:51:42.012Z,748
2019-05-19T07:52:42.008Z,745
2019-05-19T07:53:43.308Z,759
2019-05-19T07:54:42.017Z,763
2019-05-19T07:55:42.095Z,766
2019-05-19T07:56:42.017Z,768
2019-05-19T07:57:42.089Z,772
2019-05-19T07:58:42.094Z,758
2019-05-19T07:59:42.090Z,770
2019-05-19T08:00:42.040Z,776
2019-05-19T08:01:42.037Z,779
2019-05-19T08:02:42.118Z,783
2019-05-19T08:03:42.116Z,781
2019-05-19T08:04:42.035Z,785
2019-05-19T08:05:42.041Z,788
2019-05-19T08:06:42.111Z,790
2019-05-19T08:07:42.050Z,794
2019-05-19T08:08:42.114Z,796
2019-05-19T08:09:42.040Z,795
2019-05-19T08:10:42.120Z,799
2019-05-19T08:11:42.139Z,797
2019-05-19T08:12:42.160Z,805
2019-05-19T08:13:42.044Z,807
2019-05-19T08:14:42.116Z,805
2019-05-19T08:15:42.211Z,810
2019-05-19T08:16:42.042Z,815
2019-05-19T08:17:42.143Z,805
2019-05-19T08:18:42.126Z,812
2019-05-19T08:19:42.114Z,822
2019-05-19T08:20:42.045Z,816
2019-05-19T08:21:42.052Z,818
2019-05-19T08:22:42.064Z,820
2019-05-19T08:23:42.114Z,812
2019-05-19T08:24:42.052Z,818
2019-05-19T08:25:42.122Z,833
2019-05-19T08:26:42.122Z,833
2019-05-19T08:27:42.080Z,836
2019-05-19T08:28:42.056Z,830
2019-05-19T08:29:42.124Z,829
2019-05-19T08:30:42.060Z,847
2019-05-19T08:31:42.220Z,850
2019-05-19T08:32:42.121Z,848
2019-05-19T08:33:42.070Z,842
2019-05-19T08:34:42.054Z,847
2019-05-19T08:35:42.125Z,842
2019-05-19T08:36:42.145Z,841
2019-05-19T08:37:42.059Z,847
2019-05-19T08:38:42.107Z,856
2019-05-19T08:39:42.129Z,857
2019-05-19T08:40:42.072Z,861
2019-05-19T08:41:42.063Z,856
2019-05-19T08:42:42.138Z,872
2019-05-19T08:43:42.139Z,868
2019-05-19T08:44:42.159Z,872
2019-05-19T08:45:42.067Z,875
2019-05-19T08:46:42.144Z,875
2019-05-19T08:47:42.138Z,879
2019-05-19T08:48:42.074Z,870
2019-05-19T08:49:42.076Z,885
2019-05-19T08:50:42.135Z,892
2019-05-19T08:51:42.302Z,897
2019-05-19T08:52:42.130Z,901
2019-05-19T08:53:42.087Z,891
2019-05-19T08:54:42.084Z,870
2019-05-19T08:55:42.037Z,894
2019-05-19T08:56:42.121Z,894
2019-05-19T08:57:42.095Z,895
2019-05-19T08:58:42.095Z,901
2019-05-19T08:59:42.020Z,905
2019-05-19T09:00:42.074Z,901
2019-05-19T09:01:42.142Z,922
2019-05-19T09:02:42.162Z,934
2019-05-19T09:03:42.154Z,936
2019-05-19T09:04:42.153Z,935
2019-05-19T09:05:42.080Z,927
2019-05-19T09:06:42.151Z,932
2019-05-19T09:07:42.079Z,944
2019-05-19T09:08:42.149Z,937
2019-05-19T09:09:42.082Z,937
2019-05-19T09:10:42.086Z,951
2019-05-19T09:11:42.151Z,952
2019-05-19T09:12:42.150Z,943
2019-05-19T09:13:42.152Z,963
2019-05-19T09:14:42.147Z,966
2019-05-19T09:15:42.087Z,966
2019-05-19T09:16:42.114Z,959
2019-05-19T09:17:42.089Z,947
2019-05-19T09:18:42.106Z,955
2019-05-19T09:19:42.057Z,954
2019-05-19T09:20:42.005Z,974
2019-05-19T09:21:42.164Z,987
2019-05-19T09:23:42.083Z,985
2019-05-19T09:24:42.116Z,998
2019-05-19T09:25:42.110Z,991
2019-05-19T09:26:42.043Z,1007
2019-05-19T09:27:42.084Z,1001
2019-05-19T09:28:42.114Z,1001
2019-05-19T09:29:42.116Z,1007
2019-05-19T09:30:42.147Z,1010
2019-05-19T09:31:42.119Z,994
2019-05-19T09:32:42.067Z,1028
2019-05-19T09:33:42.095Z,1040
2019-05-19T09:34:42.083Z,1045
2019-05-19T09:35:42.059Z,1050
2019-05-19T09:36:42.160Z,1062
2019-05-19T09:37:42.071Z,1058
2019-05-19T09:38:42.108Z,1096
2019-05-19T09:39:42.098Z,1112
2019-05-19T09:40:42.172Z,391
2019-05-19T09:41:42.172Z,1162
2019-05-19T09:42:42.110Z,1148
2019-05-19T09:43:42.118Z,1149
2019-05-19T09:44:42.138Z,1174
2019-05-19T09:45:42.110Z,1194
2019-05-19T09:46:42.179Z,1187
2019-05-19T09:47:42.110Z,1188
2019-05-19T09:48:42.109Z,847
2019-05-19T09:49:42.113Z,1147
2019-05-19T09:50:42.114Z,1127
2019-05-19T09:51:42.156Z,622
2019-05-19T09:52:42.043Z,1162
2019-05-19T09:53:42.111Z,1153
2019-05-19T09:54:45.220Z,1122
2019-05-19T09:55:42.055Z,1084
2019-05-19T09:56:42.114Z,547
2019-05-19T09:57:42.109Z,346
2019-05-19T09:58:42.136Z,1136
2019-05-19T09:59:42.132Z,1164
2019-05-19T10:00:42.187Z,1141
2019-05-19T10:01:42.198Z,785
2019-05-19T10:02:42.120Z,1218
2019-05-19T10:03:42.196Z,1170
2019-05-19T10:04:42.138Z,966
2019-05-19T10:05:42.199Z,1129
2019-05-19T10:06:42.298Z,1212
2019-05-19T10:07:42.194Z,1236
2019-05-19T10:08:42.199Z,1245
2019-05-19T10:09:42.093Z,1248
2019-05-19T10:10:42.127Z,1227
2019-05-19T10:11:42.133Z,1216
2019-05-19T10:12:42.196Z,1050
2019-05-19T10:13:42.202Z,1213
2019-05-19T10:14:42.136Z,1173
2019-05-19T10:15:42.196Z,658
2019-05-19T10:16:42.133Z,1151
2019-05-19T10:17:42.268Z,1169
2019-05-19T10:18:42.201Z,1135
2019-05-19T10:19:42.205Z,1166
2019-05-19T10:20:42.135Z,1170
2019-05-19T10:21:42.142Z,1173
2019-05-19T10:22:42.142Z,1179
2019-05-19T10:23:42.133Z,1164
2019-05-19T10:24:57.532Z,1150
2019-05-19T10:25:42.138Z,1128
2019-05-19T10:26:42.219Z,1131
2019-05-19T10:27:42.139Z,1140
2019-05-19T10:28:42.138Z,1150
2019-05-19T10:29:42.217Z,1154
2019-05-19T10:30:42.211Z,1154
2019-05-19T10:31:42.213Z,1148
2019-05-19T10:32:42.223Z,1145
2019-05-19T10:33:42.147Z,1138
2019-05-19T10:34:42.146Z,1134
2019-05-19T10:35:42.215Z,1149
2019-05-19T10:36:42.217Z,1146
2019-05-19T10:37:42.227Z,1159
2019-05-19T10:38:42.150Z,413
2019-05-19T10:39:42.217Z,423
2019-05-19T10:40:42.216Z,460
2019-05-19T10:41:42.203Z,534
2019-05-19T10:42:42.137Z,485
2019-05-19T10:43:42.177Z,1207
2019-05-19T10:44:42.219Z,1202
2019-05-19T10:45:42.124Z,1213
2019-05-19T10:46:42.210Z,1210
2019-05-19T10:47:42.216Z,758
2019-05-19T10:48:42.138Z,1185
2019-05-19T10:49:43.105Z,1203
2019-05-19T10:50:42.127Z,1210
2019-05-19T10:51:42.146Z,1228
2019-05-19T10:52:42.219Z,1239
2019-05-19T10:53:42.216Z,1231
2019-05-19T10:54:42.149Z,1221
2019-05-19T10:55:42.142Z,1215
2019-05-19T10:56:42.147Z,1226
2019-05-19T10:57:42.153Z,1217
2019-05-19T10:58:42.221Z,1216
2019-05-19T10:59:42.227Z,1210
2019-05-19T11:00:42.153Z,1214
2019-05-19T11:01:42.236Z,1203
2019-05-19T11:02:42.235Z,1204
2019-05-19T11:03:42.166Z,1207
2019-05-19T11:04:42.246Z,1191
2019-05-19T11:05:42.253Z,1173
2019-05-19T11:06:42.233Z,1170
2019-05-19T11:07:42.171Z,1179
2019-05-19T11:08:42.235Z,1187
2019-05-19T11:09:42.183Z,1051
2019-05-19T11:10:42.179Z,465
2019-05-19T11:11:42.226Z,927
2019-05-19T11:12:42.155Z,1263
2019-05-19T11:13:42.156Z,1262
2019-05-19T11:14:42.232Z,1148
2019-05-19T11:15:42.171Z,1033
2019-05-19T11:16:42.235Z,1203
2019-05-19T11:17:42.197Z,778
2019-05-19T11:18:42.170Z,950
2019-05-19T11:19:42.235Z,1226
2019-05-19T11:20:42.235Z,561
2019-05-19T11:21:42.182Z,495
2019-05-19T11:22:42.200Z,388
2019-05-19T11:23:42.252Z,389
2019-05-19T11:24:42.335Z,383
2019-05-19T11:25:50.974Z,382
2019-05-19T11:26:42.267Z,366
2019-05-19T11:27:42.186Z,375
2019-05-19T11:28:42.255Z,413
2019-05-19T11:29:42.250Z,1316
2019-05-19T11:30:42.193Z,1062
2019-05-19T11:31:42.266Z,627
2019-05-19T11:32:42.260Z,543
2019-05-19T11:33:42.197Z,486
2019-05-19T11:35:42.259Z,1302
2019-05-19T11:36:42.268Z,515
2019-05-19T11:37:42.201Z,458
2019-05-19T11:38:42.261Z,990
2019-05-19T11:39:42.250Z,864
2019-05-19T11:40:42.191Z,1047
2019-05-19T11:41:42.187Z,1103
2019-05-19T11:42:42.258Z,874
2019-05-19T11:43:42.187Z,1202
2019-05-19T11:44:42.186Z,369
2019-05-19T11:45:42.177Z,347
2019-05-19T11:46:42.165Z,436
2019-05-19T11:47:42.192Z,1269
2019-05-19T11:48:42.189Z,1267
2019-05-19T11:49:42.182Z,1259
2019-05-19T11:50:42.522Z,1253
2019-05-19T11:51:42.257Z,1254
2019-05-19T11:52:42.261Z,1248
2019-05-19T11:53:42.199Z,414
2019-05-19T11:54:42.189Z,1256
2019-05-19T11:55:42.201Z,1227
2019-05-19T11:56:42.323Z,498
2019-05-19T11:57:42.155Z,420
2019-05-19T11:58:42.199Z,427
2019-05-19T11:59:42.269Z,443
2019-05-19T12:00:42.196Z,483
2019-05-19T12:01:42.276Z,1306
2019-05-19T12:02:42.212Z,1302
2019-05-19T12:03:42.278Z,1284
2019-05-19T12:04:42.292Z,1243
2019-05-19T12:05:42.212Z,1250
2019-05-19T12:06:42.283Z,1238
2019-05-19T12:07:42.286Z,1215
2019-05-19T12:08:42.281Z,1214
2019-05-19T12:09:42.229Z,1221
2019-05-19T12:10:42.282Z,541
2019-05-19T12:11:42.282Z,1215
2019-05-19T12:12:42.349Z,1185
2019-05-19T12:13:42.281Z,1163
2019-05-19T12:14:42.286Z,1164
2019-05-19T12:15:42.306Z,1152
2019-05-19T12:16:42.233Z,1131
2019-05-19T12:17:42.220Z,1118
2019-05-19T12:18:42.292Z,1130
2019-05-19T12:19:42.241Z,1128
2019-05-19T12:20:42.306Z,1117
2019-05-19T12:21:42.283Z,1103
2019-05-19T12:22:42.165Z,892
2019-05-19T12:23:42.250Z,1108
2019-05-19T12:24:42.221Z,929
2019-05-19T12:25:42.289Z,1118
2019-05-19T12:26:42.220Z,1099
2019-05-19T12:27:42.168Z,1090
2019-05-19T12:28:42.191Z,1087
2019-05-19T12:29:42.190Z,1084
2019-05-19T12:30:42.288Z,1096
2019-05-19T12:31:42.235Z,1096
2019-05-19T12:32:42.288Z,1098
2019-05-19T12:33:51.692Z,1092
2019-05-19T12:34:42.308Z,1070
2019-05-19T12:35:42.234Z,1080
2019-05-19T12:36:42.245Z,1084
2019-05-19T12:37:42.308Z,1104
2019-05-19T12:38:42.239Z,1095
2019-05-19T12:39:42.235Z,1083
2019-05-19T12:40:42.307Z,1085
2019-05-19T12:41:42.235Z,1058
2019-05-19T12:42:42.246Z,1076
2019-05-19T12:43:42.310Z,1074
2019-05-19T12:44:42.381Z,1071
2019-05-19T12:45:42.348Z,1062
2019-05-19T12:46:42.310Z,1054
2019-05-19T12:47:42.321Z,1026
2019-05-19T12:48:42.315Z,1012
2019-05-19T12:49:42.309Z,1059
2019-05-19T12:50:42.310Z,1053
2019-05-19T12:51:42.312Z,1062
2019-05-19T12:52:42.318Z,1055
2019-05-19T12:53:42.234Z,1042
2019-05-19T12:54:42.191Z,1036
2019-05-19T12:55:42.308Z,981
2019-05-19T12:56:42.307Z,1025
2019-05-19T12:57:42.230Z,1027
2019-05-19T12:58:42.314Z,1028
2019-05-19T12:59:42.308Z,1023
2019-05-19T13:00:42.314Z,1026
2019-05-19T13:01:42.264Z,1024
2019-05-19T13:02:42.259Z,1022
2019-05-19T13:03:42.267Z,1003
2019-05-19T13:04:42.328Z,986
2019-05-19T13:05:42.325Z,977
2019-05-19T13:06:42.286Z,953
2019-05-19T13:07:42.260Z,950
2019-05-19T13:08:42.354Z,978
2019-05-19T13:09:42.338Z,980
2019-05-19T13:10:42.329Z,986
2019-05-19T13:11:42.226Z,986
2019-05-19T13:12:42.264Z,993
2019-05-19T13:13:42.341Z,999
2019-05-19T13:14:42.258Z,828
2019-05-19T13:15:42.290Z,557
2019-05-19T13:16:42.323Z,777
2019-05-19T13:17:42.333Z,517
2019-05-19T13:18:42.262Z,828
2019-05-19T13:19:42.280Z,511
2019-05-19T13:20:42.275Z,1039
2019-05-19T13:21:42.308Z,963
2019-05-19T13:22:42.261Z,981
2019-05-19T13:23:42.292Z,1051
2019-05-19T13:24:42.223Z,1102
2019-05-19T13:25:42.219Z,1113
2019-05-19T13:26:55.533Z,937
2019-05-19T13:27:42.264Z,1081
2019-05-19T13:28:42.262Z,1070
2019-05-19T13:29:42.218Z,1067
2019-05-19T13:30:43.703Z,1070
2019-05-19T13:31:42.352Z,1030
2019-05-19T13:32:42.341Z,997
2019-05-19T13:33:42.345Z,1002
2019-05-19T13:34:42.347Z,998
2019-05-19T13:35:42.355Z,952
2019-05-19T13:36:42.372Z,885
2019-05-19T13:37:42.278Z,850
2019-05-19T13:38:42.352Z,778
2019-05-19T13:39:42.282Z,672
2019-05-19T13:40:42.284Z,821
2019-05-19T13:41:42.340Z,795
2019-05-19T13:42:42.347Z,888
2019-05-19T13:43:42.305Z,815
2019-05-19T13:44:42.346Z,840
2019-05-19T13:45:42.278Z,714
2019-05-19T13:46:42.344Z,722
2019-05-19T13:47:42.346Z,626
2019-05-19T13:48:42.345Z,460
2019-05-19T13:49:42.350Z,352
2019-05-19T13:50:42.272Z,401
2019-05-19T13:51:42.343Z,580
2019-05-19T13:52:42.277Z,406
2019-05-19T13:53:42.347Z,469
2019-05-19T13:54:42.365Z,762
2019-05-19T13:55:42.251Z,1049
2019-05-19T13:56:42.309Z,1033
2019-05-19T13:57:42.297Z,1008
2019-05-19T13:58:42.346Z,1048
2019-05-19T13:59:42.347Z,1034
2019-05-19T14:00:42.299Z,1006
2019-05-19T14:01:42.313Z,950